Time;durP1;ratioP1;P1;durP2;ratioP2;P2;SDS_P1;SDS_P2;PMS_P1;PMS_P2;Temp;Humidity;BMP_temperature;BMP_pressure;BME280_temperature;BME280_humidity;BME280_pressure;Samples;Min_cycle;Max_cycle;Signal;HPM_P1;HPM_P2
2022/01/25 00:10:39;;;;;;;38.60;26.33;;;2.40;99.90;;;;;;6254246;28;20466;-68
2022/01/25 00:24:22;;;;;;;35.57;23.37;;;2.50;99.90;;;;;;6156804;28;20479;-68
2022/01/25 00:27:40;;;;;;;35.77;22.90;;;2.50;99.90;;;;;;6234208;28;20483;-68
2022/01/25 00:30:57;;;;;;;36.90;25.33;;;2.50;99.90;;;;;;6236623;28;20474;-68
2022/01/25 00:34:02;;;;;;;40.93;24.60;;;2.60;99.90;;;;;;6249909;28;20460;-69
2022/01/25 00:37:05;;;;;;;35.13;25.30;;;2.60;99.90;;;;;;6249355;28;20888;-69
2022/01/25 00:40:09;;;;;;;39.33;24.50;;;2.60;99.90;;;;;;6255114;28;21032;-68
2022/01/25 00:43:14;;;;;;;34.57;23.03;;;2.60;99.90;;;;;;6257582;28;20473;-69
2022/01/25 00:46:20;;;;;;;39.93;27.63;;;2.60;99.90;;;;;;6253065;28;20478;-68
2022/01/25 00:49:27;;;;;;;37.50;23.80;;;2.60;99.90;;;;;;6250446;28;20467;-66
2022/01/25 00:55:47;;;;;;;38.43;25.83;;;2.50;99.90;;;;;;6252049;28;20985;-64
2022/01/25 00:58:52;;;;;;;34.53;24.60;;;2.60;99.90;;;;;;6252566;28;20540;-66
2022/01/25 01:01:58;;;;;;;35.03;24.23;;;2.50;99.90;;;;;;6252754;28;20477;-67
2022/01/25 01:05:01;;;;;;;32.40;23.30;;;2.50;99.90;;;;;;6252968;28;20532;-67
2022/01/25 01:08:05;;;;;;;38.60;24.00;;;2.50;99.90;;;;;;6253859;28;20471;-67
2022/01/25 01:11:12;;;;;;;35.33;22.83;;;2.50;99.90;;;;;;6253054;28;20486;-64
2022/01/25 01:14:23;;;;;;;36.57;23.60;;;2.50;99.90;;;;;;6253205;28;20471;-64
2022/01/25 01:28:50;;;;;;;38.83;26.13;;;2.50;99.90;;;;;;6253081;28;20486;-67
2022/01/25 01:31:15;;;;;;;32.57;21.63;;;2.50;99.90;;;;;;6252435;28;20459;-66
2022/01/25 01:34:43;;;;;;;31.07;22.13;;;2.60;99.90;;;;;;6253953;28;20932;-67
2022/01/25 01:38:09;;;;;;;34.07;22.83;;;2.60;99.90;;;;;;6254332;28;20822;-67
2022/01/25 01:41:31;;;;;;;35.70;23.30;;;2.60;99.90;;;;;;6244178;28;20471;-67
2022/01/25 01:44:50;;;;;;;33.77;22.40;;;2.50;99.90;;;;;;6252587;28;20483;-66
2022/01/25 01:48:01;;;;;;;31.20;23.63;;;2.40;99.90;;;;;;6252472;28;20494;-66
2022/01/25 01:51:14;;;;;;;33.57;23.13;;;2.50;99.90;;;;;;6252473;28;20483;-66
2022/01/25 01:54:17;;;;;;;32.37;24.63;;;2.40;99.90;;;;;;6252415;28;20471;-67
2022/01/25 01:57:20;;;;;;;36.03;22.10;;;2.30;99.90;;;;;;6252644;28;20950;-65
2022/01/25 02:00:34;;;;;;;39.57;25.33;;;2.30;99.90;;;;;;6252144;28;20479;-65
2022/01/25 02:03:39;;;;;;;33.13;23.07;;;2.30;99.90;;;;;;6251814;28;20463;-66
2022/01/25 02:06:42;;;;;;;34.20;21.20;;;2.20;99.90;;;;;;6251801;28;20470;-66
2022/01/25 02:09:46;;;;;;;31.67;22.83;;;2.20;99.90;;;;;;6251807;28;20475;-67
2022/01/25 02:12:51;;;;;;;30.47;22.07;;;2.20;99.90;;;;;;6252438;28;20775;-67
2022/01/25 02:15:56;;;;;;;33.10;22.60;;;2.10;99.90;;;;;;6252600;28;20435;-67
2022/01/25 02:22:33;;;;;;;40.53;24.37;;;2.00;99.90;;;;;;6254305;28;20475;-64
2022/01/25 02:25:36;;;;;;;32.53;23.30;;;1.90;99.90;;;;;;6257958;28;20464;-64
2022/01/25 02:28:42;;;;;;;31.80;21.80;;;1.90;99.90;;;;;;6252005;28;20487;-64
2022/01/25 02:31:45;;;;;;;32.70;22.23;;;1.90;99.90;;;;;;6251195;28;20471;-67
2022/01/25 02:34:48;;;;;;;32.47;22.33;;;2.00;99.90;;;;;;6251811;28;20474;-68
2022/01/25 02:37:53;;;;;;;33.57;22.67;;;2.00;99.90;;;;;;6251620;28;20529;-65
2022/01/25 02:40:57;;;;;;;31.43;22.70;;;2.00;99.90;;;;;;6250903;28;20483;-64
2022/01/25 02:44:00;;;;;;;30.73;20.97;;;2.00;99.90;;;;;;6246369;28;20493;-66
2022/01/25 02:50:25;;;;;;;32.57;21.30;;;1.90;99.90;;;;;;6250410;28;20479;-67
2022/01/25 02:53:30;;;;;;;33.77;22.50;;;1.90;99.90;;;;;;6251264;28;20467;-67
2022/01/25 02:56:34;;;;;;;34.20;22.03;;;1.90;99.90;;;;;;6250877;28;20993;-67
2022/01/25 02:59:37;;;;;;;35.60;23.07;;;1.90;99.90;;;;;;6251420;28;20482;-69
2022/01/25 03:02:41;;;;;;;33.77;22.70;;;1.90;99.90;;;;;;6251791;28;20482;-69
2022/01/25 03:05:45;;;;;;;28.00;21.27;;;1.90;99.90;;;;;;6250928;28;20974;-69
2022/01/25 03:08:50;;;;;;;30.03;21.97;;;1.90;99.90;;;;;;6251440;28;20494;-68
2022/01/25 03:11:55;;;;;;;31.50;21.83;;;1.70;99.90;;;;;;6251550;28;20487;-68
2022/01/25 03:15:21;;;;;;;33.63;22.33;;;1.70;99.90;;;;;;6251537;28;20478;-69
2022/01/25 03:18:39;;;;;;;32.23;22.23;;;1.60;99.90;;;;;;6250055;28;20482;-67
2022/01/25 03:21:42;;;;;;;33.53;22.67;;;1.50;99.90;;;;;;6250086;28;20476;-68
2022/01/25 03:24:48;;;;;;;36.90;24.80;;;1.40;99.90;;;;;;6252387;28;20477;-69
2022/01/25 03:27:51;;;;;;;33.23;22.30;;;1.40;99.90;;;;;;6253044;28;20443;-68
2022/01/25 03:30:54;;;;;;;28.30;20.90;;;1.40;99.90;;;;;;6252102;28;20514;-69
2022/01/25 03:33:57;;;;;;;34.17;22.37;;;1.40;99.90;;;;;;6252049;28;20895;-66
2022/01/25 03:37:01;;;;;;;29.93;21.67;;;1.30;99.90;;;;;;6250759;28;20447;-68
2022/01/25 03:40:07;;;;;;;34.23;23.00;;;1.20;99.90;;;;;;6253755;28;20543;-68
2022/01/25 03:43:10;;;;;;;37.97;25.00;;;1.20;99.90;;;;;;6254263;28;20465;-68
2022/01/25 03:46:19;;;;;;;32.70;21.50;;;1.20;99.90;;;;;;6250760;28;20466;-68
2022/01/25 03:52:43;;;;;;;35.77;22.80;;;1.20;99.90;;;;;;6256173;28;20487;-69
2022/01/25 03:55:48;;;;;;;34.67;24.60;;;1.20;99.90;;;;;;6257842;28;20474;-68
2022/01/25 03:58:52;;;;;;;37.30;25.10;;;1.20;99.90;;;;;;6258845;28;20471;-69
2022/01/25 04:01:55;;;;;;;33.43;22.40;;;1.20;99.90;;;;;;6261001;28;20467;-68
2022/01/25 04:05:00;;;;;;;34.57;22.10;;;1.10;99.90;;;;;;6256494;28;20974;-68
2022/01/25 04:08:05;;;;;;;36.43;26.63;;;1.20;99.90;;;;;;6253600;28;20483;-66
2022/01/25 04:11:09;;;;;;;42.30;24.33;;;1.10;99.90;;;;;;6255062;28;20490;-66
2022/01/25 04:14:12;;;;;;;34.07;23.00;;;1.10;99.90;;;;;;6255507;28;20471;-66
2022/01/25 04:17:19;;;;;;;34.20;23.40;;;1.10;99.90;;;;;;6254515;28;20811;-66
2022/01/25 04:20:26;;;;;;;36.93;23.87;;;1.10;99.90;;;;;;6254961;28;20487;-66
2022/01/25 04:26:51;;;;;;;35.83;23.80;;;1.00;99.90;;;;;;6254886;28;20978;-65
2022/01/25 04:29:57;;;;;;;36.87;25.20;;;1.10;99.90;;;;;;6253833;28;20536;-65
2022/01/25 04:33:03;;;;;;;39.53;23.67;;;1.00;99.90;;;;;;6254204;28;20478;-65
2022/01/25 04:36:25;;;;;;;36.67;25.03;;;1.00;99.90;;;;;;6255476;28;20475;-68
2022/01/25 04:49:32;;;;;;;37.83;23.60;;;1.00;99.90;;;;;;6264761;28;20497;-66
2022/01/25 04:52:44;;;;;;;36.60;24.67;;;1.00;99.90;;;;;;6248115;28;20474;-66
2022/01/25 04:55:54;;;;;;;38.03;25.47;;;1.00;99.90;;;;;;6255923;28;20475;-65
2022/01/25 04:59:05;;;;;;;39.73;24.80;;;1.10;99.90;;;;;;6255792;28;20467;-67
2022/01/25 05:02:13;;;;;;;38.73;24.13;;;1.10;99.90;;;;;;6258119;28;20479;-67
2022/01/25 05:05:22;;;;;;;38.23;25.03;;;1.10;99.90;;;;;;6256578;28;20947;-67
2022/01/25 05:08:34;;;;;;;44.13;25.30;;;1.10;99.90;;;;;;6253935;28;20533;-66
2022/01/25 05:11:43;;;;;;;44.80;27.90;;;1.20;99.90;;;;;;6254985;28;20475;-66
2022/01/25 05:14:58;;;;;;;45.30;27.60;;;1.20;99.90;;;;;;6254092;28;20482;-67
2022/01/25 05:18:13;;;;;;;48.83;28.30;;;1.20;99.90;;;;;;6254056;28;20464;-67
2022/01/25 05:24:39;;;;;;;48.63;29.83;;;1.30;99.90;;;;;;6254239;28;20982;-68
2022/01/25 05:27:42;;;;;;;41.43;25.50;;;1.20;99.90;;;;;;6254574;28;20490;-68
2022/01/25 05:30:46;;;;;;;41.80;27.10;;;1.20;99.90;;;;;;6254881;28;20479;-68
2022/01/25 05:33:49;;;;;;;40.43;26.17;;;1.20;99.90;;;;;;6254607;28;20463;-66
2022/01/25 05:36:56;;;;;;;46.57;29.80;;;1.20;99.90;;;;;;6254326;28;20435;-66
2022/01/25 05:40:01;;;;;;;37.70;25.00;;;1.20;99.90;;;;;;6254438;28;20462;-66
2022/01/25 05:46:34;;;;;;;39.07;27.67;;;1.20;99.90;;;;;;6226857;28;20494;-67
2022/01/25 05:49:38;;;;;;;47.83;27.83;;;1.10;99.90;;;;;;6254742;28;20515;-66
2022/01/25 05:52:42;;;;;;;37.07;25.17;;;1.10;99.90;;;;;;6252822;28;20533;-66
2022/01/25 05:55:45;;;;;;;41.53;27.17;;;1.10;99.90;;;;;;6248574;28;20471;-66
2022/01/25 05:58:48;;;;;;;41.03;24.43;;;1.00;99.90;;;;;;6252565;28;20475;-66
2022/01/25 06:01:53;;;;;;;53.50;27.03;;;0.90;99.90;;;;;;6252201;28;20475;-66
2022/01/25 06:04:56;;;;;;;36.80;23.67;;;1.00;99.90;;;;;;6254447;28;20502;-68
2022/01/25 06:07:59;;;;;;;38.80;25.97;;;1.00;99.90;;;;;;6253574;28;20478;-69
2022/01/25 06:11:02;;;;;;;42.50;25.27;;;0.90;99.90;;;;;;6253254;28;20490;-68
2022/01/25 06:14:06;;;;;;;44.07;24.90;;;0.90;99.90;;;;;;6252726;28;20475;-68
2022/01/25 06:17:10;;;;;;;38.73;24.43;;;0.90;99.90;;;;;;6252208;28;20471;-68
2022/01/25 06:20:14;;;;;;;48.40;25.03;;;1.00;99.90;;;;;;6251537;28;20475;-68
2022/01/25 06:23:17;;;;;;;46.00;25.97;;;0.90;99.90;;;;;;6251591;28;20474;-68
2022/01/25 06:26:20;;;;;;;45.30;25.03;;;0.80;99.90;;;;;;6251754;28;20485;-68
2022/01/25 06:29:23;;;;;;;41.10;24.33;;;0.80;99.90;;;;;;6251658;28;20517;-67
2022/01/25 06:32:28;;;;;;;38.73;23.47;;;0.70;99.90;;;;;;6251631;28;20810;-67
2022/01/25 06:35:32;;;;;;;56.57;26.60;;;0.70;99.90;;;;;;6251379;28;20475;-67
2022/01/25 06:38:35;;;;;;;36.13;24.07;;;0.60;99.90;;;;;;6251708;28;20478;-65
2022/01/25 06:41:38;;;;;;;43.00;24.87;;;0.70;99.90;;;;;;6250985;28;20483;-65
2022/01/25 06:44:41;;;;;;;40.50;23.97;;;0.80;99.90;;;;;;6251136;28;20475;-65
2022/01/25 06:47:47;;;;;;;48.70;26.03;;;0.80;99.90;;;;;;6250784;28;20827;-65
2022/01/25 06:50:51;;;;;;;42.33;24.77;;;0.90;99.90;;;;;;6250852;28;20819;-65
2022/01/25 06:53:59;;;;;;;47.60;26.73;;;1.00;99.90;;;;;;6251379;28;20969;-65
2022/01/25 06:57:02;;;;;;;42.23;26.20;;;1.00;99.90;;;;;;6251291;28;20497;-65
2022/01/25 07:00:10;;;;;;;40.53;23.60;;;1.00;99.90;;;;;;6250003;28;20482;-65
2022/01/25 07:03:14;;;;;;;33.43;22.80;;;1.10;99.90;;;;;;6227461;28;20508;-70
2022/01/25 07:06:18;;;;;;;67.90;26.67;;;1.20;99.90;;;;;;6229955;28;21019;-67
2022/01/25 07:09:21;;;;;;;34.67;25.00;;;1.30;99.90;;;;;;6240876;28;20481;-69
2022/01/25 07:12:24;;;;;;;38.37;23.90;;;1.30;99.90;;;;;;6229360;28;20964;-66
2022/01/25 07:15:27;;;;;;;40.03;24.90;;;1.40;99.90;;;;;;6238071;28;20471;-66
2022/01/25 07:18:32;;;;;;;34.93;24.37;;;1.50;99.90;;;;;;6231657;28;20471;-65
2022/01/25 07:21:35;;;;;;;39.63;25.20;;;1.60;99.90;;;;;;6222789;28;20499;-66
2022/01/25 07:24:39;;;;;;;36.80;23.60;;;1.60;99.90;;;;;;6232210;28;21033;-66
2022/01/25 07:27:42;;;;;;;36.50;23.87;;;1.60;99.90;;;;;;6226027;28;20471;-66
2022/01/25 07:30:45;;;;;;;40.27;24.53;;;1.70;99.90;;;;;;6238909;28;20483;-66
2022/01/25 07:33:55;;;;;;;36.73;24.53;;;1.80;99.90;;;;;;6249854;28;20455;-66
2022/01/25 07:37:12;;;;;;;38.50;24.70;;;2.00;99.90;;;;;;6247274;28;20466;-66
2022/01/25 07:40:21;;;;;;;37.40;24.67;;;2.10;99.90;;;;;;6246954;28;20973;-67
2022/01/25 07:43:27;;;;;;;42.07;27.13;;;2.20;99.90;;;;;;6247877;28;20463;-68
2022/01/25 07:46:33;;;;;;;38.67;24.77;;;2.40;99.90;;;;;;6248227;28;21152;-68
2022/01/25 07:49:39;;;;;;;35.40;25.00;;;2.50;99.90;;;;;;6249050;28;20479;-67
2022/01/25 07:52:49;;;;;;;38.27;23.63;;;2.60;99.90;;;;;;6249860;28;20478;-66
2022/01/25 07:55:52;;;;;;;36.77;24.57;;;2.70;99.90;;;;;;6249437;28;20486;-68
2022/01/25 07:58:55;;;;;;;35.83;25.13;;;2.70;99.90;;;;;;6249696;28;21000;-69
2022/01/25 08:01:58;;;;;;;33.10;23.37;;;2.70;99.90;;;;;;6249963;28;20462;-69
2022/01/25 08:05:09;;;;;;;31.40;22.97;;;2.90;99.90;;;;;;6240533;28;20881;-69
2022/01/25 08:08:29;;;;;;;34.50;24.10;;;2.90;99.90;;;;;;6250589;28;20542;-69
2022/01/25 08:11:44;;;;;;;30.93;22.63;;;3.10;99.90;;;;;;6248400;28;20479;-69
2022/01/25 08:14:50;;;;;;;37.13;25.73;;;3.10;99.90;;;;;;6249096;28;20506;-70
2022/01/25 08:17:54;;;;;;;36.10;24.40;;;3.20;99.90;;;;;;6248728;28;20482;-69
2022/01/25 08:21:12;;;;;;;35.70;24.10;;;3.20;99.90;;;;;;6161213;28;20466;-68
2022/01/25 08:24:23;;;;;;;35.27;24.40;;;3.20;99.90;;;;;;6146022;29;20487;-66
2022/01/25 08:27:43;;;;;;;36.83;23.77;;;3.20;99.90;;;;;;6140525;29;20463;-66
2022/01/25 08:31:03;;;;;;;35.93;23.70;;;3.20;99.90;;;;;;6072706;29;20493;-65
2022/01/25 08:34:13;;;;;;;49.50;26.20;;;3.30;99.90;;;;;;6061135;29;20529;-65
2022/01/25 08:37:33;;;;;;;39.90;25.17;;;3.40;99.90;;;;;;6066398;29;20579;-65
2022/01/25 08:40:45;;;;;;;37.77;25.77;;;3.40;99.90;;;;;;6069891;29;20952;-65
2022/01/25 08:44:06;;;;;;;34.03;23.73;;;3.40;99.90;;;;;;6044592;29;20470;-65
2022/01/25 08:47:17;;;;;;;32.10;23.20;;;3.50;99.90;;;;;;6060079;29;20474;-65
2022/01/25 08:50:49;;;;;;;36.13;24.47;;;3.50;99.90;;;;;;6016059;29;20477;-66
2022/01/25 08:54:08;;;;;;;33.97;24.50;;;3.40;99.90;;;;;;6128306;29;20491;-64
2022/01/25 08:57:16;;;;;;;43.47;24.90;;;3.40;99.90;;;;;;6130390;29;20483;-64
2022/01/25 09:00:39;;;;;;;34.40;22.63;;;3.70;99.90;;;;;;6118017;29;20523;-65
2022/01/25 09:03:42;;;;;;;34.97;24.20;;;3.90;99.90;;;;;;6131061;29;20498;-64
2022/01/25 09:06:46;;;;;;;31.87;21.70;;;4.10;99.80;;;;;;6140275;28;20487;-66
2022/01/25 09:09:50;;;;;;;42.03;24.20;;;4.20;99.20;;;;;;6223233;28;20495;-68
2022/01/25 09:12:54;;;;;;;32.93;22.23;;;4.20;98.90;;;;;;6225780;28;20439;-65
2022/01/25 09:15:57;;;;;;;30.87;21.70;;;4.40;99.00;;;;;;6227596;28;20440;-65
2022/01/25 09:19:01;;;;;;;35.20;22.33;;;4.70;98.50;;;;;;6228358;28;20522;-67
2022/01/25 09:22:04;;;;;;;26.87;20.20;;;5.00;98.10;;;;;;6228009;28;20993;-67
2022/01/25 09:25:12;;;;;;;30.47;20.13;;;5.40;97.50;;;;;;6227532;28;20566;-67
2022/01/25 09:28:16;;;;;;;29.67;23.40;;;5.60;96.30;;;;;;6224098;28;20530;-67
2022/01/25 09:31:19;;;;;;;27.83;20.17;;;5.60;96.00;;;;;;6245824;28;20471;-67
2022/01/25 09:34:25;;;;;;;29.90;22.30;;;5.50;95.70;;;;;;6252399;28;20525;-67
2022/01/25 09:37:28;;;;;;;31.43;23.20;;;5.50;96.20;;;;;;6252534;28;20455;-67
2022/01/25 09:40:33;;;;;;;33.50;23.43;;;5.30;96.20;;;;;;6252557;28;20475;-67
2022/01/25 09:43:36;;;;;;;32.80;23.30;;;5.20;96.50;;;;;;6252656;28;20478;-67
2022/01/25 09:46:40;;;;;;;33.37;24.00;;;5.10;96.60;;;;;;6252196;28;20848;-66
2022/01/25 09:49:44;;;;;;;29.97;20.23;;;5.00;96.70;;;;;;6251842;28;20466;-68
2022/01/25 09:52:47;;;;;;;32.03;21.60;;;4.80;97.00;;;;;;6256487;28;20466;-67
2022/01/25 09:55:53;;;;;;;31.63;23.20;;;4.70;97.40;;;;;;6281687;28;20466;-68
2022/01/25 09:58:56;;;;;;;28.40;22.03;;;4.60;97.50;;;;;;6277072;28;20470;-68
2022/01/25 10:01:59;;;;;;;31.03;22.07;;;4.50;97.90;;;;;;6276994;28;20473;-67
2022/01/25 10:05:16;;;;;;;32.73;22.20;;;4.40;98.20;;;;;;6254160;28;20893;-67
2022/01/25 10:08:21;;;;;;;32.93;24.10;;;4.40;98.30;;;;;;6234437;28;20470;-67
2022/01/25 10:11:26;;;;;;;31.30;22.50;;;4.50;98.30;;;;;;6251438;28;20475;-68
2022/01/25 10:14:29;;;;;;;30.73;22.10;;;4.50;98.10;;;;;;6245719;28;20471;-67
2022/01/25 10:17:33;;;;;;;28.67;22.27;;;4.60;98.20;;;;;;6251935;28;20498;-67
2022/01/25 10:20:38;;;;;;;28.30;21.83;;;4.80;97.80;;;;;;6250869;28;20529;-66
2022/01/25 10:23:43;;;;;;;29.10;21.03;;;5.00;97.50;;;;;;6248302;28;20467;-69
2022/01/25 10:26:50;;;;;;;28.60;21.37;;;5.60;97.90;;;;;;6252020;28;20471;-69
2022/01/25 10:29:54;;;;;;;24.43;20.43;;;7.50;95.40;;;;;;6253274;28;20486;-69
2022/01/25 10:33:01;;;;;;;24.77;17.57;;;11.30;90.90;;;;;;6252406;28;20564;-66
2022/01/25 10:36:12;;;;;;;23.27;18.70;;;15.20;68.00;;;;;;6251668;28;20482;-69
2022/01/25 10:39:21;;;;;;;24.03;18.13;;;18.10;56.20;;;;;;6251066;28;20471;-68
2022/01/25 10:42:27;;;;;;;20.93;18.73;;;20.00;46.30;;;;;;6251210;28;20974;-68
2022/01/25 10:45:31;;;;;;;27.30;20.83;;;22.20;42.00;;;;;;6252788;28;20665;-69
2022/01/25 10:48:35;;;;;;;26.87;24.07;;;24.50;36.30;;;;;;6255547;28;20224;-69
2022/01/25 10:51:41;;;;;;;26.80;24.00;;;25.20;31.70;;;;;;6262078;28;20243;-70
2022/01/25 10:54:44;;;;;;;22.20;20.00;;;22.80;32.10;;;;;;6261532;28;20228;-68
2022/01/25 10:57:58;;;;;;;23.70;21.30;;;19.70;34.40;;;;;;6252848;28;20236;-68
2022/01/25 11:01:01;;;;;;;22.30;19.00;;;16.50;39.20;;;;;;6254075;28;20935;-69
2022/01/25 11:04:10;;;;;;;21.27;19.03;;;14.80;42.50;;;;;;6255159;28;20475;-68
2022/01/25 11:07:14;;;;;;;26.53;21.97;;;13.70;45.50;;;;;;6254239;28;20940;-68
2022/01/25 11:10:20;;;;;;;21.30;18.97;;;15.00;46.70;;;;;;6257119;28;20493;-67
2022/01/25 11:13:37;;;;;;;23.50;20.30;;;17.60;41.90;;;;;;6248997;28;20545;-68
2022/01/25 11:16:40;;;;;;;21.03;18.80;;;20.30;39.30;;;;;;6248397;28;20475;-68
2022/01/25 11:19:43;;;;;;;24.03;21.63;;;23.30;34.70;;;;;;6255147;28;20223;-69
2022/01/25 11:22:47;;;;;;;23.37;21.27;;;25.60;31.40;;;;;;6251230;28;20730;-66
2022/01/25 11:25:50;;;;;;;22.60;20.40;;;27.30;28.70;;;;;;6251828;28;20564;-66
2022/01/25 11:28:55;;;;;;;25.00;22.70;;;28.20;27.40;;;;;;6251845;28;20227;-66
2022/01/25 11:32:07;;;;;;;22.93;20.83;;;28.80;26.10;;;;;;6254162;28;20679;-66
2022/01/25 11:35:13;;;;;;;23.73;21.57;;;29.60;24.90;;;;;;6252504;28;20678;-67
2022/01/25 11:38:26;;;;;;;21.87;20.00;;;30.10;24.20;;;;;;6248897;28;20231;-66
2022/01/25 11:41:30;;;;;;;24.60;22.27;;;30.10;23.80;;;;;;6227414;28;20239;-67
2022/01/25 11:44:35;;;;;;;22.90;21.00;;;29.70;24.00;;;;;;6227517;28;20251;-67
2022/01/25 11:47:38;;;;;;;22.40;20.30;;;30.10;23.30;;;;;;6227468;28;20240;-69
2022/01/25 11:50:44;;;;;;;21.23;19.23;;;30.20;23.40;;;;;;6236824;28;20258;-67
2022/01/25 11:53:50;;;;;;;21.10;19.33;;;30.30;22.50;;;;;;6248481;28;20306;-69
2022/01/25 11:57:10;;;;;;;21.30;19.20;;;29.50;23.20;;;;;;6248268;28;20246;-69
2022/01/25 12:00:16;;;;;;;21.33;19.43;;;29.40;23.30;;;;;;6249755;28;20251;-68
2022/01/25 12:03:22;;;;;;;22.47;20.27;;;30.70;22.60;;;;;;6249672;28;20242;-69
2022/01/25 12:06:31;;;;;;;21.70;19.70;;;31.80;21.80;;;;;;6249644;28;20242;-69
2022/01/25 12:09:48;;;;;;;21.75;19.92;;;32.50;21.30;;;;;;6249312;28;20232;-69
2022/01/25 12:13:09;;;;;;;21.50;19.70;;;32.40;21.10;;;;;;6249911;28;20231;-69
2022/01/25 12:16:27;;;;;;;22.08;20.17;;;32.80;20.80;;;;;;6246499;28;20243;-67
2022/01/25 12:19:37;;;;;;;22.00;20.05;;;33.20;20.60;;;;;;6254238;28;20726;-69
2022/01/25 12:22:42;;;;;;;21.42;19.52;;;32.90;20.10;;;;;;6254617;28;20234;-67
2022/01/25 12:25:50;;;;;;;21.65;19.85;;;32.50;20.50;;;;;;6254422;28;20561;-69
2022/01/25 12:29:36;;;;;;;20.38;18.48;;;32.80;20.60;;;;;;6256456;28;20306;-69
2022/01/25 12:32:51;;;;;;;21.15;19.25;;;32.70;20.70;;;;;;6279199;28;20230;-71
2022/01/25 12:36:03;;;;;;;21.07;19.17;;;32.40;20.20;;;;;;6278773;28;20237;-67
2022/01/25 12:39:11;;;;;;;21.25;19.05;;;32.30;20.40;;;;;;6271987;28;20223;-68
2022/01/25 12:42:14;;;;;;;20.80;19.00;;;32.70;20.40;;;;;;6253922;28;20232;-65
2022/01/25 12:45:18;;;;;;;20.92;19.13;;;33.10;20.20;;;;;;6253673;28;20227;-71
2022/01/25 12:48:27;;;;;;;21.13;19.23;;;32.70;19.80;;;;;;6253987;28;20239;-69
2022/01/25 12:51:32;;;;;;;21.50;19.70;;;32.50;20.10;;;;;;6269913;28;20241;-67
2022/01/25 12:54:37;;;;;;;20.43;18.73;;;31.20;20.80;;;;;;6279520;28;20238;-70
2022/01/25 12:57:46;;;;;;;20.03;18.20;;;31.90;20.60;;;;;;6279104;28;20230;-68
2022/01/25 13:00:52;;;;;;;20.30;18.50;;;31.80;20.90;;;;;;6278693;28;20243;-69
2022/01/25 13:03:59;;;;;;;19.70;17.80;;;29.50;22.00;;;;;;6280859;28;20265;-68
2022/01/25 13:07:03;;;;;;;18.10;16.60;;;29.80;21.90;;;;;;6278626;28;20233;-67
2022/01/25 13:10:09;;;;;;;18.83;16.93;;;30.00;21.50;;;;;;6278051;28;20226;-69
2022/01/25 13:13:28;;;;;;;18.50;16.83;;;30.30;21.40;;;;;;6279001;28;20230;-69
2022/01/25 13:16:36;;;;;;;17.23;15.83;;;31.00;20.90;;;;;;6278224;28;20555;-70
2022/01/25 13:19:47;;;;;;;17.00;15.30;;;30.40;21.30;;;;;;6260561;28;20679;-68
2022/01/25 13:22:51;;;;;;;16.33;14.80;;;30.00;21.20;;;;;;6253982;28;20233;-70
2022/01/25 13:25:57;;;;;;;16.37;14.90;;;29.50;21.80;;;;;;6254309;28;20698;-68
2022/01/25 13:30:38;;;;;;;16.30;14.90;;;30.20;21.50;;;;;;6276582;28;20697;-66
2022/01/25 13:32:26;;;;;;;17.33;15.73;;;29.80;21.10;;;;;;6277600;28;20580;-64
2022/01/25 13:35:33;;;;;;;15.20;13.80;;;29.20;21.80;;;;;;6277420;28;20233;-65
2022/01/25 13:38:39;;;;;;;15.37;13.97;;;28.50;22.40;;;;;;6275133;28;20294;-68
2022/01/25 13:41:52;;;;;;;14.57;13.17;;;27.40;23.00;;;;;;6252782;28;20246;-65
2022/01/25 13:48:32;;;;;;;13.80;12.50;;;27.00;23.20;;;;;;6253397;28;20747;-66
2022/01/25 13:51:43;;;;;;;11.27;10.20;;;27.00;23.30;;;;;;6269339;28;20235;-65
2022/01/25 13:54:47;;;;;;;10.93;9.93;;;25.80;23.40;;;;;;6277010;28;20243;-65
2022/01/25 13:57:50;;;;;;;8.93;8.13;;;25.40;23.60;;;;;;6276993;28;20238;-66
2022/01/25 14:00:56;;;;;;;11.07;9.97;;;25.30;24.10;;;;;;6277329;28;20238;-66
2022/01/25 14:04:02;;;;;;;10.37;9.47;;;24.70;24.20;;;;;;6258033;28;20580;-64
2022/01/25 14:07:06;;;;;;;11.23;10.13;;;23.60;24.80;;;;;;6252334;28;20212;-64
2022/01/25 14:10:18;;;;;;;11.03;9.97;;;23.00;25.60;;;;;;6251705;28;20229;-64
2022/01/25 14:23:44;;;;;;;11.60;10.40;;;21.10;27.50;;;;;;6251920;28;20224;-63
2022/01/25 14:26:48;;;;;;;11.87;10.67;;;19.70;28.90;;;;;;6246984;28;20231;-68
2022/01/25 14:29:53;;;;;;;12.40;11.10;;;17.90;30.50;;;;;;6276217;28;20485;-64
2022/01/25 14:33:03;;;;;;;10.80;9.70;;;16.80;32.50;;;;;;6277075;28;20485;-64
2022/01/25 14:36:10;;;;;;;12.87;10.77;;;15.10;35.30;;;;;;6273011;28;20474;-64
2022/01/25 14:39:16;;;;;;;12.33;10.30;;;13.90;37.40;;;;;;6250371;28;20471;-63
2022/01/25 14:42:20;;;;;;;11.73;10.37;;;12.50;40.00;;;;;;6250240;28;20478;-63
2022/01/25 14:45:25;;;;;;;12.13;10.70;;;11.50;42.20;;;;;;6250607;28;20490;-62
2022/01/25 14:48:33;;;;;;;12.80;11.50;;;10.80;44.60;;;;;;6250593;28;20555;-64
2022/01/25 14:51:40;;;;;;;13.30;10.90;;;10.10;45.70;;;;;;6268011;28;20466;-63
2022/01/25 14:54:45;;;;;;;12.47;10.87;;;9.60;48.00;;;;;;6275289;28;20876;-63
2022/01/25 14:58:03;;;;;;;15.30;12.20;;;9.10;50.10;;;;;;6275463;28;20485;-63
2022/01/25 15:01:06;;;;;;;14.73;11.77;;;8.60;52.20;;;;;;6275503;28;20455;-63
2022/01/25 15:04:09;;;;;;;14.50;12.63;;;7.50;55.70;;;;;;6275508;28;20445;-64
2022/01/25 15:07:14;;;;;;;13.37;11.57;;;7.10;58.50;;;;;;6275494;28;20474;-63
2022/01/25 15:10:21;;;;;;;17.17;13.20;;;6.90;60.70;;;;;;6274810;28;20466;-63
2022/01/25 15:13:26;;;;;;;20.80;14.77;;;6.60;64.20;;;;;;6275396;28;20466;-64
2022/01/25 15:16:35;;;;;;;17.03;13.30;;;6.20;68.60;;;;;;6275333;28;20485;-63
2022/01/25 15:19:38;;;;;;;18.40;13.30;;;6.10;71.50;;;;;;6273840;28;20491;-63
2022/01/25 15:22:45;;;;;;;19.23;13.80;;;6.10;73.00;;;;;;6274934;28;20481;-63
2022/01/25 15:25:54;;;;;;;20.23;14.53;;;6.00;74.90;;;;;;6274294;28;20478;-64
2022/01/25 15:28:58;;;;;;;19.67;13.83;;;5.90;76.70;;;;;;6240622;28;20529;-64
2022/01/25 15:32:02;;;;;;;21.37;14.33;;;5.70;79.00;;;;;;6249764;28;20562;-64
2022/01/25 15:35:07;;;;;;;19.67;14.70;;;5.70;80.60;;;;;;6250184;28;20560;-64
2022/01/25 15:38:10;;;;;;;16.77;13.43;;;5.70;81.70;;;;;;6250013;28;20482;-64
2022/01/25 15:41:15;;;;;;;19.83;13.87;;;5.60;82.60;;;;;;6249880;28;20470;-64
2022/01/25 15:44:20;;;;;;;20.23;14.10;;;5.50;84.50;;;;;;6253859;28;20478;-63
2022/01/25 15:47:26;;;;;;;18.40;14.30;;;5.30;86.50;;;;;;6245607;28;20529;-63
2022/01/25 15:50:30;;;;;;;19.00;13.63;;;5.30;87.80;;;;;;6253780;28;20558;-63
2022/01/25 15:53:33;;;;;;;18.33;15.03;;;5.30;88.50;;;;;;6258049;28;20477;-64
2022/01/25 15:56:38;;;;;;;19.00;14.93;;;5.30;89.00;;;;;;6257095;28;20474;-63
2022/01/25 15:59:42;;;;;;;20.90;14.43;;;5.20;90.40;;;;;;6259869;28;20467;-63
2022/01/25 16:02:45;;;;;;;20.30;14.50;;;5.10;90.80;;;;;;6257722;28;20487;-64
2022/01/25 16:05:50;;;;;;;21.37;14.43;;;5.00;91.20;;;;;;6256471;28;20478;-64
2022/01/25 16:08:54;;;;;;;21.70;15.70;;;5.10;91.30;;;;;;6256909;28;20811;-63
2022/01/25 16:12:18;;;;;;;19.83;15.40;;;5.10;91.50;;;;;;6256301;28;20533;-64
2022/01/25 16:15:22;;;;;;;21.67;15.47;;;5.10;91.70;;;;;;6256976;28;20947;-65
2022/01/25 16:18:25;;;;;;;23.43;16.83;;;5.20;91.70;;;;;;6254344;28;20544;-65
2022/01/25 16:21:28;;;;;;;19.13;15.83;;;5.10;91.90;;;;;;6254729;28;20485;-65
2022/01/25 16:24:31;;;;;;;20.93;15.43;;;5.20;92.10;;;;;;6254344;28;20467;-64
2022/01/25 16:27:37;;;;;;;21.70;16.10;;;5.20;92.10;;;;;;6253883;28;20471;-62
2022/01/25 16:30:40;;;;;;;22.23;16.73;;;5.20;92.10;;;;;;6254690;28;20553;-63
2022/01/25 16:33:44;;;;;;;19.40;14.83;;;5.30;92.10;;;;;;6220163;28;20491;-62
2022/01/25 16:36:47;;;;;;;24.33;16.90;;;5.30;92.20;;;;;;6231901;28;20495;-63
2022/01/25 16:39:51;;;;;;;22.13;14.67;;;5.20;92.20;;;;;;6251562;28;20803;-63
2022/01/25 16:42:56;;;;;;;22.60;15.83;;;5.30;92.30;;;;;;6252024;28;20466;-63
2022/01/25 16:46:00;;;;;;;27.50;18.20;;;5.20;92.20;;;;;;6253444;28;20440;-63
2022/01/25 16:49:04;;;;;;;24.80;18.60;;;5.20;92.30;;;;;;6253390;28;20443;-64
2022/01/25 16:52:07;;;;;;;27.53;17.43;;;5.20;92.40;;;;;;6254424;28;20451;-63
2022/01/25 16:55:13;;;;;;;25.60;17.97;;;5.10;92.60;;;;;;6253430;28;20918;-63
2022/01/25 16:58:38;;;;;;;23.87;15.93;;;5.10;92.70;;;;;;6253810;28;20910;-62
2022/01/25 17:01:41;;;;;;;28.57;18.83;;;5.00;92.80;;;;;;6252861;28;20474;-62
2022/01/25 17:04:45;;;;;;;26.57;18.57;;;5.00;93.00;;;;;;6253456;28;20472;-62
2022/01/25 17:07:54;;;;;;;33.70;19.73;;;5.00;93.20;;;;;;6253202;28;20797;-63
2022/01/25 17:10:57;;;;;;;30.20;20.40;;;4.90;93.60;;;;;;6253001;28;20970;-62
2022/01/25 17:14:02;;;;;;;29.30;19.40;;;4.80;93.80;;;;;;6255685;28;20475;-62
2022/01/25 17:17:05;;;;;;;25.23;19.47;;;4.80;93.90;;;;;;6278348;28;20462;-62